Terminal Aerodrome Forecast
Issued by NWS

Home | Current Version | Previous Version | Text Only | Print | Product List | Glossary On
Versions: 1 2 3 4 5 6 7 8 9 10 11 12 13 14 15 16 17 18 19 20 21
000
FTUS45 KABQ 240538
TAFLVS
TAF
KLVS 240538Z 2406/2506 16010KT P6SM FEW050
     FM240800 21006KT P6SM SKC
     FM241800 24015G25KT P6SM SKC
     FM242200 28018G25KT P6SM SKC
     FM250200 25010KT P6SM SKC=

USA.gov is the U.S. government's official web portal to all federal, state and local government web resources and services.